createdAt,value
2023-05-13T00:00:25.165Z,17.63
2023-05-13T00:02:52.565Z,23.55
2023-05-13T00:05:21.377Z,26.70
2023-05-13T00:07:48.472Z,34.97
2023-05-13T00:10:17.323Z,33.63
2023-05-13T00:12:44.475Z,31.25
2023-05-13T00:15:11.602Z,38.15
2023-05-13T00:17:38.517Z,41.75
2023-05-13T00:20:06.761Z,39.88
2023-05-13T00:22:33.640Z,45.28
2023-05-13T00:25:00.962Z,50.42
2023-05-13T00:27:28.029Z,49.92
2023-05-13T00:29:55.030Z,54.83
2023-05-13T00:32:21.963Z,45.13
2023-05-13T00:34:48.905Z,51.40
2023-05-13T00:37:15.918Z,63.60
2023-05-13T00:39:42.960Z,56.75
2023-05-13T00:42:12.503Z,57.65
2023-05-13T00:44:39.825Z,60.13
2023-05-13T00:47:07.281Z,57.47
2023-05-13T00:49:34.504Z,60.42
2023-05-13T00:52:02.544Z,55.67
2023-05-13T00:54:30.858Z,66.97
2023-05-13T00:56:59.621Z,57.05
2023-05-13T00:59:28.651Z,56.85
2023-05-13T01:02:04.298Z,54.38
2023-05-13T01:04:51.515Z,62.88
2023-05-13T01:07:18.549Z,51.75
2023-05-13T01:09:57.245Z,64.90
2023-05-13T01:12:34.947Z,58.05
2023-05-13T01:15:10.359Z,59.22
2023-05-13T01:18:01.355Z,61.42
2023-05-13T01:20:30.519Z,54.53
2023-05-13T01:23:00.725Z,57.67
2023-05-13T01:25:27.783Z,61.72
2023-05-13T01:27:56.071Z,59.17
2023-05-13T01:30:24.037Z,54.15
2023-05-13T01:32:52.823Z,58.10
2023-05-13T01:35:21.612Z,54.05
2023-05-13T01:37:50.259Z,65.47
2023-05-13T01:40:28.025Z,63.65
2023-05-13T01:42:59.058Z,59.08
2023-05-13T01:45:29.521Z,61.35
2023-05-13T01:47:56.471Z,67.80
2023-05-13T01:50:23.683Z,53.42
2023-05-13T01:52:50.813Z,64.88
2023-05-13T01:55:20.267Z,61.30
2023-05-13T01:57:47.247Z,65.22
2023-05-13T02:00:14.785Z,67.57
2023-05-13T02:02:41.933Z,60.85
2023-05-13T02:05:09.271Z,62.72
2023-05-13T02:07:36.983Z,52.90
2023-05-13T02:10:04.274Z,56.33
2023-05-13T02:12:31.357Z,54.03
2023-05-13T02:14:58.345Z,58.38
2023-05-13T02:17:25.478Z,57.83
2023-05-13T02:19:52.473Z,60.63
2023-05-13T02:22:19.469Z,65.60
2023-05-13T02:24:46.294Z,53.72
2023-05-13T02:27:16.899Z,53.47
2023-05-13T02:29:43.875Z,64.63
2023-05-13T02:32:10.865Z,54.95
2023-05-13T02:34:37.887Z,63.03
2023-05-13T02:37:05.567Z,58.45
2023-05-13T02:39:32.452Z,62.10
2023-05-13T02:41:59.867Z,60.10
2023-05-13T02:44:26.801Z,55.70
2023-05-13T02:46:53.612Z,52.75
2023-05-13T02:49:20.452Z,58.83
2023-05-13T02:51:47.392Z,62.15
2023-05-13T02:54:14.201Z,59.30
2023-05-13T02:56:41.047Z,59.22
2023-05-13T02:59:08.845Z,61.00
2023-05-13T03:01:35.842Z,54.78
2023-05-13T03:04:02.681Z,63.13
2023-05-13T03:06:29.653Z,62.15
2023-05-13T03:08:56.535Z,70.82
2023-05-13T03:11:23.448Z,68.63
2023-05-13T03:13:50.570Z,56.70
2023-05-13T03:16:17.524Z,60.05
2023-05-13T03:18:44.586Z,64.38
2023-05-13T03:21:11.583Z,67.97
2023-05-13T03:23:38.560Z,52.17
2023-05-13T03:26:05.502Z,65.28
2023-05-13T03:28:32.370Z,66.40
2023-05-13T03:30:59.265Z,60.22
2023-05-13T03:33:26.470Z,60.70
2023-05-13T03:35:53.561Z,59.35
2023-05-13T03:38:20.615Z,66.13
2023-05-13T03:40:47.501Z,64.20
2023-05-13T03:43:14.439Z,63.17
2023-05-13T03:45:41.261Z,71.25
2023-05-13T03:48:08.154Z,55.53
2023-05-13T03:50:35.015Z,67.05
2023-05-13T03:53:02.272Z,64.30
2023-05-13T03:55:29.141Z,60.83
2023-05-13T03:57:56.220Z,67.63
2023-05-13T04:00:23.424Z,61.83
2023-05-13T04:02:50.746Z,55.05
2023-05-13T04:05:18.058Z,61.08
2023-05-13T04:07:45.305Z,58.33
2023-05-13T04:10:15.448Z,60.40
2023-05-13T04:12:43.044Z,61.38
2023-05-13T04:15:10.615Z,68.03
2023-05-13T04:17:37.752Z,53.65
2023-05-13T04:20:05.874Z,55.72
2023-05-13T04:22:32.688Z,51.53
2023-05-13T04:24:59.569Z,58.55
2023-05-13T04:27:26.630Z,57.08
2023-05-13T04:29:53.538Z,59.97
2023-05-13T04:32:22.191Z,57.53
2023-05-13T04:34:49.639Z,56.80
2023-05-13T04:37:16.723Z,53.67
2023-05-13T04:39:46.347Z,68.07
2023-05-13T04:42:16.725Z,55.10
2023-05-13T04:44:44.001Z,65.25
2023-05-13T04:47:11.308Z,54.05
2023-05-13T04:49:38.175Z,54.20
2023-05-13T04:52:06.561Z,62.97
2023-05-13T04:54:35.873Z,56.33
2023-05-13T04:57:03.587Z,58.45
2023-05-13T04:59:31.136Z,61.35
2023-05-13T05:01:58.393Z,56.40
2023-05-13T05:04:26.090Z,55.13
2023-05-13T05:06:53.149Z,51.53
2023-05-13T05:09:20.125Z,57.42
2023-05-13T05:11:47.068Z,49.22
2023-05-13T05:14:14.285Z,59.50
2023-05-13T05:16:41.290Z,48.67
2023-05-13T05:19:08.395Z,50.35
2023-05-13T05:21:35.364Z,57.28
2023-05-13T05:24:02.392Z,50.83
2023-05-13T05:26:29.243Z,51.63
2023-05-13T05:28:56.623Z,48.20
2023-05-13T05:31:23.743Z,45.70
2023-05-13T05:33:51.247Z,47.35
2023-05-13T05:36:18.289Z,43.85
2023-05-13T05:38:45.441Z,44.13
2023-05-13T05:41:13.105Z,53.40
2023-05-13T05:43:39.902Z,46.10
2023-05-13T05:46:06.866Z,46.58
2023-05-13T05:48:34.870Z,54.20
2023-05-13T05:51:02.308Z,42.03
2023-05-13T05:53:29.360Z,42.55
2023-05-13T05:55:56.346Z,35.97
2023-05-13T05:58:23.483Z,50.00
2023-05-13T06:00:50.759Z,44.72
2023-05-13T06:03:17.873Z,49.05
2023-05-13T06:05:45.085Z,41.58
2023-05-13T06:08:14.835Z,44.15
2023-05-13T06:10:42.033Z,43.72
2023-05-13T06:13:08.880Z,42.78
2023-05-13T06:15:36.942Z,39.35
2023-05-13T06:18:05.658Z,43.58
2023-05-13T06:20:33.015Z,39.33
2023-05-13T06:22:59.934Z,38.30
2023-05-13T06:25:27.061Z,39.42
2023-05-13T06:27:53.939Z,42.72
2023-05-13T06:30:21.787Z,36.70
2023-05-13T06:33:00.141Z,38.60
2023-05-13T06:35:28.796Z,36.53
2023-05-13T06:37:57.495Z,31.92
2023-05-13T06:40:24.722Z,38.70
2023-05-13T06:42:51.931Z,31.55
2023-05-13T06:45:23.244Z,36.55
2023-05-13T06:47:53.790Z,32.53
2023-05-13T06:50:21.046Z,30.15
2023-05-13T06:52:48.198Z,34.88
2023-05-13T06:55:16.752Z,32.13
2023-05-13T06:57:46.922Z,31.83
2023-05-13T07:00:19.478Z,28.00
2023-05-13T07:02:46.710Z,31.10
2023-05-13T07:05:14.969Z,36.60
2023-05-13T07:07:43.485Z,36.70
2023-05-13T07:10:11.083Z,32.47
2023-05-13T07:12:38.262Z,32.80
2023-05-13T07:15:06.216Z,30.70
2023-05-13T07:17:33.112Z,31.73
2023-05-13T07:19:59.979Z,32.42
2023-05-13T07:22:27.957Z,28.17
2023-05-13T07:24:55.256Z,32.53
2023-05-13T07:27:22.250Z,35.78
2023-05-13T07:29:50.100Z,35.33
2023-05-13T07:32:17.104Z,26.85
2023-05-13T07:34:44.902Z,33.50
2023-05-13T07:37:12.853Z,28.42
2023-05-13T07:39:39.870Z,30.88
2023-05-13T07:42:07.329Z,36.80
2023-05-13T07:44:34.392Z,35.28
2023-05-13T07:47:01.372Z,34.67
2023-05-13T07:49:28.285Z,28.90
2023-05-13T07:51:55.768Z,30.95
2023-05-13T07:54:23.142Z,30.73
2023-05-13T07:56:50.029Z,28.73
2023-05-13T07:59:16.981Z,30.70
2023-05-13T08:01:44.091Z,33.78
2023-05-13T08:04:11.935Z,31.65
2023-05-13T08:06:41.751Z,29.60
2023-05-13T08:09:09.635Z,27.95
2023-05-13T08:11:36.699Z,25.42
2023-05-13T08:14:05.025Z,24.48
2023-05-13T08:16:37.486Z,26.95
2023-05-13T08:19:05.079Z,23.45
2023-05-13T08:21:32.701Z,29.92
2023-05-13T08:23:59.652Z,22.48
2023-05-13T08:26:26.864Z,26.00
2023-05-13T08:28:55.194Z,33.55
2023-05-13T08:31:24.336Z,23.08
2023-05-13T08:33:53.496Z,31.20
2023-05-13T08:36:26.126Z,32.38
2023-05-13T08:38:53.476Z,25.90
2023-05-13T08:41:22.008Z,27.40
2023-05-13T08:43:52.127Z,25.90
2023-05-13T08:46:19.620Z,22.55
2023-05-13T08:48:47.307Z,23.80
2023-05-13T08:51:14.734Z,23.05
2023-05-13T08:53:42.998Z,27.85
2023-05-13T08:56:10.865Z,23.60
2023-05-13T08:58:37.878Z,25.95
2023-05-13T09:01:07.324Z,21.02
2023-05-13T09:03:37.243Z,23.55
2023-05-13T09:06:05.113Z,26.63
2023-05-13T09:08:32.822Z,27.38
2023-05-13T09:11:00.981Z,21.60
2023-05-13T09:13:28.022Z,24.25
2023-05-13T09:15:54.960Z,29.67
2023-05-13T09:18:22.034Z,24.05
2023-05-13T09:20:49.864Z,23.60
2023-05-13T09:23:17.993Z,22.50
2023-05-13T09:25:45.054Z,21.10
2023-05-13T09:28:15.727Z,24.10
2023-05-13T09:30:45.574Z,23.48
2023-05-13T09:33:15.236Z,22.17
2023-05-13T09:35:53.205Z,23.75
2023-05-13T09:38:21.598Z,22.15
2023-05-13T09:40:57.254Z,19.95
2023-05-13T09:43:26.991Z,24.77
2023-05-13T09:46:06.510Z,21.67
2023-05-13T09:48:34.336Z,17.33
2023-05-13T09:51:01.739Z,24.38
2023-05-13T09:53:30.170Z,25.05
2023-05-13T09:55:58.744Z,22.27
2023-05-13T09:58:28.509Z,25.13
2023-05-13T10:00:56.600Z,23.58
2023-05-13T10:03:24.068Z,25.85
2023-05-13T10:05:52.609Z,25.42
2023-05-13T10:08:19.888Z,21.85
2023-05-13T10:10:49.616Z,26.00
2023-05-13T10:13:18.991Z,19.55
2023-05-13T10:15:51.698Z,20.63
2023-05-13T10:18:20.179Z,20.27
2023-05-13T10:20:53.253Z,18.27
2023-05-13T10:23:22.762Z,22.67
2023-05-13T10:25:51.317Z,19.10
2023-05-13T10:28:19.686Z,21.13
2023-05-13T10:30:47.803Z,22.63
2023-05-13T10:33:16.687Z,21.55
2023-05-13T10:36:04.146Z,24.77
2023-05-13T10:38:49.580Z,29.55
2023-05-13T10:41:35.213Z,22.27
2023-05-13T10:44:03.683Z,18.65
2023-05-13T10:46:30.757Z,26.40
2023-05-13T10:49:00.852Z,23.80
2023-05-13T10:51:28.043Z,20.25
2023-05-13T10:53:58.005Z,22.98
2023-05-13T10:56:29.414Z,23.27
2023-05-13T10:59:04.521Z,18.45
2023-05-13T11:01:43.573Z,23.30
2023-05-13T11:04:16.877Z,23.25
2023-05-13T11:06:48.416Z,21.70
2023-05-13T11:09:30.416Z,26.40
2023-05-13T11:11:59.310Z,27.30
2023-05-13T11:14:28.100Z,22.80
2023-05-13T11:17:12.449Z,24.30
2023-05-13T11:19:47.694Z,26.23
2023-05-13T11:22:19.358Z,23.42
2023-05-13T11:25:08.641Z,23.63
2023-05-13T11:27:42.883Z,28.25
2023-05-13T11:30:30.104Z,27.27
2023-05-13T11:32:59.081Z,26.48
2023-05-13T11:35:31.180Z,23.85
2023-05-13T11:38:00.849Z,25.48
2023-05-13T11:40:33.739Z,22.00
2023-05-13T11:43:01.898Z,26.05
2023-05-13T11:45:30.356Z,21.70
2023-05-13T11:47:58.192Z,24.58
2023-05-13T11:50:30.198Z,24.10
2023-05-13T11:53:03.248Z,22.25
2023-05-13T11:55:37.055Z,24.45
2023-05-13T11:58:04.676Z,22.75
2023-05-13T12:00:33.841Z,30.95
2023-05-13T12:03:03.333Z,24.13
2023-05-13T12:05:31.545Z,20.77
2023-05-13T12:07:59.064Z,21.88
2023-05-13T12:10:27.218Z,22.70
2023-05-13T12:12:54.786Z,23.02
2023-05-13T12:15:23.189Z,21.30
2023-05-13T12:17:50.946Z,20.98
2023-05-13T12:23:12.022Z,24.52
2023-05-13T12:25:41.963Z,23.52
2023-05-13T12:28:17.618Z,25.15
2023-05-13T12:30:52.796Z,24.48
2023-05-13T12:33:22.650Z,23.85
2023-05-13T12:35:54.662Z,25.08
2023-05-13T12:38:25.347Z,29.30
2023-05-13T12:40:53.259Z,22.80
2023-05-13T12:43:20.429Z,26.13
2023-05-13T12:45:53.559Z,18.85
2023-05-13T12:48:25.046Z,25.60
2023-05-13T12:50:52.341Z,21.75
2023-05-13T12:53:19.315Z,22.00
2023-05-13T12:55:46.138Z,20.85
2023-05-13T12:58:13.620Z,21.05
2023-05-13T13:00:40.645Z,22.30
2023-05-13T13:03:08.396Z,20.40
2023-05-13T13:05:35.758Z,24.33
2023-05-13T13:08:05.395Z,22.05
2023-05-13T13:10:32.518Z,19.13
2023-05-13T13:12:59.632Z,21.20
2023-05-13T13:15:26.719Z,19.95
2023-05-13T13:17:53.800Z,18.90
2023-05-13T13:20:21.078Z,21.52
2023-05-13T13:22:47.984Z,24.30
2023-05-13T13:25:15.002Z,19.95
2023-05-13T13:27:42.122Z,22.70
2023-05-13T13:30:09.626Z,22.67
2023-05-13T13:32:36.548Z,25.45
2023-05-13T13:35:05.715Z,26.77
2023-05-13T13:37:33.007Z,19.88
2023-05-13T13:40:00.227Z,22.63
2023-05-13T13:42:40.289Z,26.00
2023-05-13T13:45:11.622Z,22.70
2023-05-13T13:47:38.763Z,27.10
2023-05-13T13:50:06.756Z,23.25
2023-05-13T13:52:33.679Z,23.17
2023-05-13T13:55:00.732Z,23.33
2023-05-13T13:57:27.820Z,25.30
2023-05-13T13:59:54.823Z,21.80
2023-05-13T14:02:22.024Z,26.35
2023-05-13T14:04:49.119Z,20.27
2023-05-13T14:07:16.201Z,19.55
2023-05-13T14:09:43.086Z,23.63
2023-05-13T14:12:10.183Z,28.63
2023-05-13T14:14:37.310Z,19.92
2023-05-13T14:17:04.209Z,19.45
2023-05-13T14:19:31.007Z,18.73
2023-05-13T14:21:58.733Z,24.02
2023-05-13T14:24:27.143Z,21.92
2023-05-13T14:26:54.307Z,24.48
2023-05-13T14:29:22.866Z,22.67
2023-05-13T14:31:50.380Z,22.20
2023-05-13T14:34:17.402Z,25.40
2023-05-13T14:36:44.372Z,23.65
2023-05-13T14:39:12.170Z,20.95
2023-05-13T14:41:40.936Z,22.40
2023-05-13T14:44:07.794Z,25.42
2023-05-13T14:46:38.127Z,29.67
2023-05-13T14:49:05.032Z,26.15
2023-05-13T14:51:31.950Z,24.10
2023-05-13T14:53:58.873Z,25.02
2023-05-13T14:56:25.861Z,26.90
2023-05-13T14:58:54.148Z,24.33
2023-05-13T15:01:21.147Z,23.13
2023-05-13T15:03:49.445Z,19.65
2023-05-13T15:06:16.354Z,23.75
2023-05-13T15:08:43.251Z,22.83
2023-05-13T15:11:10.403Z,26.83
2023-05-13T15:13:40.135Z,25.98
2023-05-13T15:16:07.703Z,24.88
2023-05-13T15:18:34.876Z,22.83
2023-05-13T15:21:01.971Z,22.77
2023-05-13T15:23:28.930Z,25.05
2023-05-13T15:25:55.940Z,26.92
2023-05-13T15:28:22.991Z,23.02
2023-05-13T15:30:49.876Z,24.50
2023-05-13T15:33:16.786Z,18.63
2023-05-13T15:35:43.874Z,22.05
2023-05-13T15:38:10.960Z,21.92
2023-05-13T15:40:41.200Z,21.08
2023-05-13T15:43:08.498Z,23.08
2023-05-13T15:45:35.836Z,21.67
2023-05-13T15:48:03.009Z,20.27
2023-05-13T15:50:30.876Z,23.48
2023-05-13T15:52:57.777Z,24.33
2023-05-13T15:55:24.901Z,19.80
2023-05-13T15:57:51.930Z,24.02
2023-05-13T16:00:19.217Z,22.20
2023-05-13T16:02:46.241Z,22.60
2023-05-13T16:05:15.389Z,22.30
2023-05-13T16:07:44.403Z,21.20
2023-05-13T16:10:11.676Z,29.05
2023-05-13T16:12:39.077Z,20.88
2023-05-13T16:15:06.849Z,22.13
2023-05-13T16:17:34.660Z,26.05
2023-05-13T16:20:01.829Z,21.83
2023-05-13T16:22:32.751Z,24.05
2023-05-13T16:25:05.405Z,22.98
2023-05-13T16:27:32.992Z,24.13
2023-05-13T16:30:02.240Z,22.73
2023-05-13T16:32:29.777Z,29.95
2023-05-13T16:34:57.116Z,27.02
2023-05-13T16:37:23.981Z,20.55
2023-05-13T16:39:50.888Z,24.17
2023-05-13T16:42:19.524Z,23.27
2023-05-13T16:44:49.759Z,21.63
2023-05-13T16:47:16.631Z,25.42
2023-05-13T16:49:43.761Z,18.83
2023-05-13T16:52:10.613Z,29.73
2023-05-13T16:54:38.281Z,27.65
2023-05-13T16:57:06.010Z,24.25
2023-05-13T16:59:33.547Z,25.92
2023-05-13T17:02:00.830Z,23.77
2023-05-13T17:04:28.522Z,23.40
2023-05-13T17:06:57.542Z,28.38
2023-05-13T17:09:26.199Z,26.60
2023-05-13T17:11:54.465Z,23.88
2023-05-13T17:14:22.079Z,27.15
2023-05-13T17:16:49.524Z,29.40
2023-05-13T17:19:16.679Z,24.92
2023-05-13T17:21:43.698Z,21.98
2023-05-13T17:24:15.356Z,29.80
2023-05-13T17:26:42.250Z,33.53
2023-05-13T17:29:09.224Z,27.50
2023-05-13T17:31:36.087Z,24.33
2023-05-13T17:34:02.947Z,28.33
2023-05-13T17:36:29.908Z,20.40
2023-05-13T17:38:56.975Z,21.42
2023-05-13T17:41:23.907Z,29.85
2023-05-13T17:43:50.912Z,25.05
2023-05-13T17:46:17.876Z,21.50
2023-05-13T17:48:44.897Z,20.60
2023-05-13T17:51:14.681Z,23.52
2023-05-13T17:53:41.721Z,25.77
2023-05-13T17:56:10.426Z,29.30
2023-05-13T17:58:37.502Z,22.88
2023-05-13T18:01:04.646Z,27.05
2023-05-13T18:03:32.605Z,25.25
2023-05-13T18:05:59.874Z,27.17
2023-05-13T18:08:26.955Z,29.42
2023-05-13T18:10:53.776Z,25.88
2023-05-13T18:13:20.809Z,26.90
2023-05-13T18:15:48.706Z,26.77
2023-05-13T18:18:17.624Z,29.33
2023-05-13T18:20:44.745Z,36.00
2023-05-13T18:23:11.818Z,33.33
2023-05-13T18:25:48.776Z,32.83
2023-05-13T18:28:22.495Z,31.00
2023-05-13T18:30:49.600Z,32.53
2023-05-13T18:33:16.549Z,30.02
2023-05-13T18:35:43.476Z,38.67
2023-05-13T18:38:10.642Z,29.67
2023-05-13T18:40:37.628Z,31.92
2023-05-13T18:43:04.548Z,33.05
2023-05-13T18:45:31.441Z,29.20
2023-05-13T18:47:58.441Z,33.75
2023-05-13T18:50:25.555Z,30.27
2023-05-13T18:52:52.407Z,29.17
2023-05-13T18:55:19.564Z,31.38
2023-05-13T18:57:46.648Z,30.73
2023-05-13T19:00:14.036Z,33.03
2023-05-13T19:02:41.005Z,31.02
2023-05-13T19:05:10.182Z,36.25
2023-05-13T19:07:37.291Z,35.85
2023-05-13T19:10:04.619Z,32.20
2023-05-13T19:12:31.695Z,28.65
2023-05-13T19:14:58.637Z,35.25
2023-05-13T19:17:26.067Z,36.15
2023-05-13T19:19:52.979Z,35.83
2023-05-13T19:22:19.856Z,35.13
2023-05-13T19:24:46.765Z,36.78
2023-05-13T19:27:13.924Z,34.08
2023-05-13T19:29:40.844Z,37.45
2023-05-13T19:32:07.747Z,35.97
2023-05-13T19:34:34.668Z,33.80
2023-05-13T19:37:01.735Z,36.80
2023-05-13T19:39:28.692Z,35.30
2023-05-13T19:41:56.421Z,40.63
2023-05-13T19:44:23.898Z,39.53
2023-05-13T19:46:51.525Z,40.78
2023-05-13T19:49:18.657Z,40.38
2023-05-13T19:51:45.917Z,36.17
2023-05-13T19:54:13.996Z,37.42
2023-05-13T19:56:42.260Z,40.65
2023-05-13T19:59:09.172Z,34.05
2023-05-13T20:01:37.758Z,35.67
2023-05-13T20:04:05.423Z,37.40
2023-05-13T20:06:32.878Z,43.03
2023-05-13T20:09:00.834Z,43.50
2023-05-13T20:11:28.172Z,42.05
2023-05-13T20:13:55.744Z,37.45
2023-05-13T20:16:23.537Z,42.95
2023-05-13T20:18:51.535Z,41.40
2023-05-13T20:21:18.492Z,37.30
2023-05-13T20:23:45.403Z,39.95
2023-05-13T20:26:13.219Z,42.22
2023-05-13T20:28:40.084Z,44.05
2023-05-13T20:31:07.147Z,38.75
2023-05-13T20:33:34.225Z,39.60
2023-05-13T20:36:01.146Z,45.60
2023-05-13T20:38:28.137Z,43.97
2023-05-13T20:40:55.120Z,47.10
2023-05-13T20:43:22.115Z,45.72
2023-05-13T20:45:49.048Z,42.13
2023-05-13T20:48:16.724Z,40.03
2023-05-13T20:50:43.520Z,42.38
2023-05-13T20:53:10.448Z,44.83
2023-05-13T20:55:37.483Z,44.33
2023-05-13T20:58:04.587Z,47.78
2023-05-13T21:00:31.657Z,44.95
2023-05-13T21:03:00.903Z,46.50
2023-05-13T21:05:28.372Z,53.53
2023-05-13T21:07:55.789Z,52.28
2023-05-13T21:10:23.409Z,44.30
2023-05-13T21:12:51.273Z,53.45
2023-05-13T21:15:18.151Z,51.67
2023-05-13T21:17:47.123Z,50.72
2023-05-13T21:20:14.475Z,49.80
2023-05-13T21:22:51.608Z,48.38
2023-05-13T21:25:18.528Z,48.63
2023-05-13T21:27:45.883Z,39.42
2023-05-13T21:30:13.543Z,51.50
2023-05-13T21:32:40.432Z,54.90
2023-05-13T21:35:08.097Z,47.47
2023-05-13T21:37:35.292Z,56.28
2023-05-13T21:40:02.522Z,41.97
2023-05-13T21:42:29.375Z,50.00
2023-05-13T21:44:57.258Z,46.38
2023-05-13T21:47:25.183Z,54.95
2023-05-13T21:49:52.219Z,45.65
2023-05-13T21:52:19.090Z,47.17
2023-05-13T21:54:46.269Z,50.58
2023-05-13T21:57:13.307Z,46.65
2023-05-13T22:02:21.326Z,49.53
2023-05-13T22:04:48.853Z,55.05
2023-05-13T22:07:17.739Z,50.45
2023-05-13T22:09:45.064Z,52.42
2023-05-13T22:12:11.891Z,49.10
2023-05-13T22:14:38.875Z,52.40
2023-05-13T22:17:09.528Z,51.28
2023-05-13T22:19:37.291Z,54.60
2023-05-13T22:22:04.405Z,55.30
2023-05-13T22:24:31.573Z,60.33
2023-05-13T22:26:58.822Z,64.78
2023-05-13T22:29:26.006Z,52.95
2023-05-13T22:31:53.083Z,60.17
2023-05-13T22:34:20.292Z,53.97
2023-05-13T22:36:47.281Z,64.90
2023-05-13T22:39:16.163Z,57.38
2023-05-13T22:41:43.427Z,66.60
2023-05-13T22:44:11.140Z,63.45
2023-05-13T22:46:38.814Z,63.53
2023-05-13T22:49:09.311Z,56.67
2023-05-13T22:51:36.513Z,56.88
2023-05-13T22:54:03.655Z,62.72
2023-05-13T22:56:30.718Z,64.55
2023-05-13T22:58:57.588Z,64.78
2023-05-13T23:01:24.735Z,55.63
2023-05-13T23:03:51.946Z,58.10
2023-05-13T23:06:21.189Z,55.42
2023-05-13T23:08:48.625Z,56.20
2023-05-13T23:11:15.698Z,68.15
2023-05-13T23:13:42.630Z,60.55
2023-05-13T23:16:10.557Z,57.40
2023-05-13T23:18:37.508Z,54.95
2023-05-13T23:21:04.559Z,61.15
2023-05-13T23:23:32.028Z,50.63
2023-05-13T23:25:58.836Z,51.20
2023-05-13T23:28:25.663Z,55.10
2023-05-13T23:30:56.425Z,49.50
2023-05-13T23:33:23.287Z,49.40
2023-05-13T23:35:56.612Z,51.85
2023-05-13T23:38:23.946Z,48.47
2023-05-13T23:40:50.965Z,51.60
2023-05-13T23:43:17.910Z,55.42
2023-05-13T23:45:46.247Z,49.55
2023-05-13T23:48:13.334Z,51.08
2023-05-13T23:50:42.027Z,53.15
2023-05-13T23:53:09.196Z,50.13
2023-05-13T23:55:36.152Z,55.63
2023-05-13T23:58:03.003Z,48.35
